ADDS METAR Data INFO
IDs: Format: Raw Decoded Include TAF

Data at: 0213 UTC 17 Aug 2018

PAVC 170156Z AUTO 19010KT 10SM OVC041 11/04 A2999 RMK AO2 SLP160 T01060039
PAVC 170056Z AUTO 21008KT 10SM SCT047 OVC060 11/04 A2998 RMK AO2 SLP159 T01110044
PAVC 162356Z AUTO 19010KT 10SM BKN045 OVC055 11/04 A2999 RMK AO2 SLP161 60000 T01060039 10106 20078 58001
PAVC 162256Z AUTO 19009KT 10SM OVC039 10/05 A3000 RMK AO2 RAE19 SLP163 P0000 T01000050
PAVC 162156Z AUTO 25009KT 10SM -RA OVC037 09/06 A3000 RMK AO2 RAB32 SLP164 P0000 T00890061
PAVC 162056Z AUTO 21007KT 10SM FEW021 BKN039 OVC060 09/06 A2999 RMK AO2 RAE12 SLP162 P0000 60000 T00940056 56001
PAVC 161956Z AUTO 00000KT 10SM -RA OVC040 09/05 A2999 RMK AO2 RAB55 SLP162 P0000 T00940050
PAVC 161856Z AUTO 25006KT 10SM OVC042 09/06 A3000 RMK AO2 SLP163 T00890056
PAVC 161756Z AUTO 00000KT 10SM OVC044 08/04 A3000 RMK AO2 SLP163 T00780044 10078 20039 50003
PAVC 161656Z AUTO 00000KT 10SM OVC044 06/04 A3000 RMK AO2 SLP164 T00560044
PAVC 161556Z AUTO 08003KT 10SM FEW036 04/03 A2999 RMK AO2 SLP161 T00390028
PAVC 161456Z AUTO 26006KT 10SM FEW047 SCT055 05/03 A2999 RMK AO2 SLP161 T00500033 58003
PAVC 161356Z AUTO 27004KT 10SM OVC050 06/05 A2999 RMK AO2 SLP162 T00610050
PAVC 161256Z AUTO 24005KT 10SM OVC048 07/04 A3000 RMK AO2 SLP163 T00670044
PAVC 161156Z AUTO 34003KT 10SM BKN048 06/05 A3000 RMK AO2 RAB18E46 SLP164 P0000 60000 70002 T00610050 10078 20061 58002
PAVC 161056Z AUTO 26004KT 10SM OVC050 07/05 A3000 RMK AO2 RAE05 SLP165 P0000 T00720050
PAVC 160956Z AUTO 26004KT 10SM -RA OVC050 07/05 A3000 RMK AO2 RAE29B45 SLP166 P0000 T00670050
PAVC 160856Z AUTO 23006KT 10SM -RA FEW026 OVC050 07/04 A3000 RMK AO2 RAE11B48 SLP165 P0000 60000 T00720044 401170067 51004
PAVC 160756Z AUTO 26007KT 10SM -RA FEW031 OVC055 07/05 A3000 RMK AO2 RAB28 SLP164 P0000 T00720050
PAVC 160656Z AUTO 26009KT 10SM OVC055 08/05 A3000 RMK AO2 SLP163 T00780050
PAVC 160556Z AUTO 24006KT 10SM BKN033 OVC055 08/04 A2999 RMK AO2 SLP161 T00780044 10106 20078 53003
PAVC 160456Z AUTO 26010KT 10SM FEW033 BKN043 OVC055 09/05 A2998 RMK AO2 SLP157 T00890050
PAVC 160356Z AUTO 25008KT 10SM OVC036 09/05 A2998 RMK AO2 SLP157 T00940050
PAVC 160256Z AUTO 25012KT 10SM OVC032 10/05 A2998 RMK AO2 SLP158 T01000050 57004
PAVC 160223Z AUTO 25010KT 10SM OVC030 11/06 A2998 RMK AO2
PAVC 160156Z AUTO 22010KT 10SM OVC028 10/06 A2999 RMK AO2 SLP161 T01000061
PAVC 160106Z AUTO 25008KT 10SM BKN026 OVC033 10/06 A2999 RMK AO2
PAVC 152356Z AUTO 23009KT 10SM BKN027 OVC037 10/07 A2999 RMK AO2 RAE34 SLP162 P0001 60002 T01000067 10117 20083 58003
PAVC 152256Z AUTO 26011KT 6SM -RA BR FEW015 BKN026 OVC032 09/07 A3001 RMK AO2 RAB22 SLP167 P0001 T00890067
PAVC 152224Z AUTO 23010KT 10SM -RA BKN024 BKN030 OVC050 10/07 A3001 RMK AO2 RAB22 P0000
PAVC 152156Z AUTO 27010KT 10SM SCT028 OVC048 11/06 A3000 RMK AO2 SLP166 T01060056
PAVC 152056Z AUTO 27013KT 10SM OVC037 11/06 A3000 RMK AO2 SLP166 T01060056 55003
PAVC 151956Z AUTO 25010KT 10SM SCT028 OVC045 11/06 A3000 RMK AO2 SLP165 T01060061
PAVC 151928Z AUTO 25010KT 10SM SCT024 BKN031 OVC045 09/06 A3001 RMK AO2
PAVC 151856Z AUTO 25010KT 10SM BKN029 OVC034 09/06 A3001 RMK AO2 SLP168 T00940061
PAVC 151853Z AUTO 24009KT 10SM OVC031 09/06 A3001 RMK AO2
PAVC 151756Z AUTO 25008KT 10SM FEW012 BKN020 OVC037 09/08 A3000 RMK AO2 RAE42 SLP166 P0000 60000 T00890078 10089 20067 52002
PAVC 151751Z AUTO 25009KT 10SM SCT014 OVC020 09/07 A3000 RMK AO2 RAE42 P0000
PAVC 151739Z AUTO 23011KT 10SM -RA BKN014 OVC020 08/07 A3000 RMK AO2 P0000
PAVC 151656Z AUTO 25007KT 5SM -RA BR OVC016 08/08 A3000 RMK AO2 RAB35 SLP164 P0000 T00830078
PAVC 151618Z AUTO 28005KT 10SM BKN023 BKN050 08/07 A3000 RMK AO2
PAVC 151556Z AUTO 27006KT 10SM BKN050 08/06 A3000 RMK AO2 SLP163 T00780061
PAVC 151456Z AUTO 27004KT 10SM OVC050 08/07 A3000 RMK AO2 SLP166 T00780067 56008